sensor_id;sensor_type;location;lat;lon;timestamp;noise_LAeq;noise_LA_min;noise_LA_max;noise_LA01;noise_LA95
64545;Laerm;50936;51.660;5.616;2023-04-24T00:01:59;53.48;40.71;74.47;;
64545;Laerm;50936;51.660;5.616;2023-04-24T00:04:26;55.74;41.30;75.97;;
64545;Laerm;50936;51.660;5.616;2023-04-24T00:06:53;70.15;40.89;94.37;;
64545;Laerm;50936;51.660;5.616;2023-04-24T00:09:24;58.93;40.62;83.87;;
64545;Laerm;50936;51.660;5.616;2023-04-24T00:11:50;55.30;40.62;83.08;;
64545;Laerm;50936;51.660;5.616;2023-04-24T00:14:17;55.12;39.70;77.89;;
64545;Laerm;50936;51.660;5.616;2023-04-24T00:16:44;56.55;40.80;77.78;;
64545;Laerm;50936;51.660;5.616;2023-04-24T00:19:11;56.26;40.43;81.79;;
64545;Laerm;50936;51.660;5.616;2023-04-24T00:21:40;59.58;40.80;79.02;;
64545;Laerm;50936;51.660;5.616;2023-04-24T00:24:07;56.46;40.36;78.73;;
64545;Laerm;50936;51.660;5.616;2023-04-24T00:26:37;56.15;40.53;84.22;;
64545;Laerm;50936;51.660;5.616;2023-04-24T00:29:04;55.87;40.23;78.09;;
64545;Laerm;50936;51.660;5.616;2023-04-24T00:31:31;57.86;39.92;77.48;;
64545;Laerm;50936;51.660;5.616;2023-04-24T00:34:02;58.15;39.92;82.09;;
64545;Laerm;50936;51.660;5.616;2023-04-24T00:36:29;54.74;40.89;77.07;;
64545;Laerm;50936;51.660;5.616;2023-04-24T00:38:57;53.85;40.62;78.24;;
64545;Laerm;50936;51.660;5.616;2023-04-24T00:41:25;53.40;41.22;75.14;;
64545;Laerm;50936;51.660;5.616;2023-04-24T00:43:52;48.81;40.43;67.35;;
64545;Laerm;50936;51.660;5.616;2023-04-24T00:46:20;45.74;40.43;65.74;;
64545;Laerm;50936;51.660;5.616;2023-04-24T00:48:48;59.81;40.13;82.68;;
64545;Laerm;50936;51.660;5.616;2023-04-24T00:51:14;61.01;40.43;87.34;;
64545;Laerm;50936;51.660;5.616;2023-04-24T00:53:42;58.26;40.43;80.51;;
64545;Laerm;50936;51.660;5.616;2023-04-24T00:56:09;58.63;40.33;79.03;;
64545;Laerm;50936;51.660;5.616;2023-04-24T00:58:36;56.57;40.71;75.46;;
64545;Laerm;50936;51.660;5.616;2023-04-24T01:01:03;52.96;40.71;74.43;;
64545;Laerm;50936;51.660;5.616;2023-04-24T01:03:35;58.81;40.54;81.17;;
64545;Laerm;50936;51.660;5.616;2023-04-24T01:06:05;48.45;40.36;69.47;;
64545;Laerm;50936;51.660;5.616;2023-04-24T01:08:34;54.28;40.89;69.09;;
64545;Laerm;50936;51.660;5.616;2023-04-24T01:11:04;62.14;39.92;82.76;;
64545;Laerm;50936;51.660;5.616;2023-04-24T01:13:33;53.06;40.62;67.05;;
64545;Laerm;50936;51.660;5.616;2023-04-24T01:16:01;56.52;40.33;75.95;;
64545;Laerm;50936;51.660;5.616;2023-04-24T01:18:28;55.15;40.33;78.81;;
64545;Laerm;50936;51.660;5.616;2023-04-24T01:21:02;51.08;40.62;70.66;;
64545;Laerm;50936;51.660;5.616;2023-04-24T01:23:30;60.75;40.71;82.91;;
64545;Laerm;50936;51.660;5.616;2023-04-24T01:25:57;59.17;40.98;77.73;;
64545;Laerm;50936;51.660;5.616;2023-04-24T01:28:25;58.71;40.53;81.55;;
64545;Laerm;50936;51.660;5.616;2023-04-24T01:30:52;52.48;40.62;72.80;;
64545;Laerm;50936;51.660;5.616;2023-04-24T01:33:23;51.87;40.33;71.72;;
64545;Laerm;50936;51.660;5.616;2023-04-24T01:35:50;59.21;41.81;80.98;;
64545;Laerm;50936;51.660;5.616;2023-04-24T01:38:17;65.90;41.38;91.33;;
64545;Laerm;50936;51.660;5.616;2023-04-24T01:40:44;57.90;41.46;82.57;;
64545;Laerm;50936;51.660;5.616;2023-04-24T01:43:12;54.21;42.22;73.90;;
64545;Laerm;50936;51.660;5.616;2023-04-24T01:45:39;60.16;42.53;82.03;;
64545;Laerm;50936;51.660;5.616;2023-04-24T01:48:06;54.63;43.04;78.68;;
64545;Laerm;50936;51.660;5.616;2023-04-24T01:50:33;58.46;42.76;81.42;;
64545;Laerm;50936;51.660;5.616;2023-04-24T01:53:00;57.03;42.22;77.60;;
64545;Laerm;50936;51.660;5.616;2023-04-24T01:55:30;61.40;44.03;83.71;;
64545;Laerm;50936;51.660;5.616;2023-04-24T01:57:59;61.29;42.53;80.53;;
64545;Laerm;50936;51.660;5.616;2023-04-24T02:00:26;60.82;42.41;82.42;;
64545;Laerm;50936;51.660;5.616;2023-04-24T02:02:53;64.38;42.93;86.68;;
64545;Laerm;50936;51.660;5.616;2023-04-24T02:05:20;62.50;44.94;88.44;;
64545;Laerm;50936;51.660;5.616;2023-04-24T02:07:47;61.75;44.72;78.87;;
64545;Laerm;50936;51.660;5.616;2023-04-24T02:10:14;57.65;43.99;75.02;;
64545;Laerm;50936;51.660;5.616;2023-04-24T02:12:41;55.84;42.29;76.26;;
64545;Laerm;50936;51.660;5.616;2023-04-24T02:15:09;52.92;42.22;71.47;;
64545;Laerm;50936;51.660;5.616;2023-04-24T02:17:36;69.40;41.75;92.10;;
64545;Laerm;50936;51.660;5.616;2023-04-24T02:20:06;61.11;41.96;84.73;;
64545;Laerm;50936;51.660;5.616;2023-04-24T02:22:33;60.06;43.04;83.76;;
64545;Laerm;50936;51.660;5.616;2023-04-24T02:25:01;67.77;43.14;94.06;;
64545;Laerm;50936;51.660;5.616;2023-04-24T02:27:28;55.00;42.53;74.40;;
64545;Laerm;50936;51.660;5.616;2023-04-24T02:29:56;73.07;41.96;99.30;;
64545;Laerm;50936;51.660;5.616;2023-04-24T02:32:23;66.92;41.89;90.60;;
64545;Laerm;50936;51.660;5.616;2023-04-24T02:34:50;55.42;41.61;76.62;;
64545;Laerm;50936;51.660;5.616;2023-04-24T02:37:16;60.89;41.89;82.81;;
64545;Laerm;50936;51.660;5.616;2023-04-24T02:39:43;55.49;42.41;77.13;;
64545;Laerm;50936;51.660;5.616;2023-04-24T02:42:10;64.15;42.22;85.71;;
64545;Laerm;50936;51.660;5.616;2023-04-24T02:44:37;60.31;41.53;79.79;;
64545;Laerm;50936;51.660;5.616;2023-04-24T02:47:04;61.58;42.16;83.42;;
64545;Laerm;50936;51.660;5.616;2023-04-24T02:49:31;66.44;42.82;89.11;;
64545;Laerm;50936;51.660;5.616;2023-04-24T02:51:58;65.76;42.59;89.88;;
64545;Laerm;50936;51.660;5.616;2023-04-24T02:54:25;67.61;42.41;92.38;;
64545;Laerm;50936;51.660;5.616;2023-04-24T02:56:52;61.32;42.59;81.64;;
64545;Laerm;50936;51.660;5.616;2023-04-24T02:59:19;58.37;41.89;78.71;;
64545;Laerm;50936;51.660;5.616;2023-04-24T03:01:46;58.83;42.53;78.66;;
64545;Laerm;50936;51.660;5.616;2023-04-24T03:04:13;57.26;41.61;75.33;;
64545;Laerm;50936;51.660;5.616;2023-04-24T03:06:40;61.86;41.96;79.09;;
64545;Laerm;50936;51.660;5.616;2023-04-24T03:09:07;55.56;42.22;79.52;;
64545;Laerm;50936;51.660;5.616;2023-04-24T03:11:34;61.28;42.98;83.07;;
64545;Laerm;50936;51.660;5.616;2023-04-24T03:14:01;59.50;43.44;76.19;;
64545;Laerm;50936;51.660;5.616;2023-04-24T03:16:27;57.65;42.59;81.10;;
64545;Laerm;50936;51.660;5.616;2023-04-24T03:18:54;58.14;42.41;73.73;;
64545;Laerm;50936;51.660;5.616;2023-04-24T03:21:24;59.51;43.29;81.63;;
64545;Laerm;50936;51.660;5.616;2023-04-24T03:23:51;60.05;43.04;83.19;;
64545;Laerm;50936;51.660;5.616;2023-04-24T03:26:18;53.32;42.71;73.95;;
64545;Laerm;50936;51.660;5.616;2023-04-24T03:28:59;58.28;43.09;81.68;;
64545;Laerm;50936;51.660;5.616;2023-04-24T03:31:26;61.66;44.35;73.68;;
64545;Laerm;50936;51.660;5.616;2023-04-24T03:33:53;57.41;43.72;72.91;;
64545;Laerm;50936;51.660;5.616;2023-04-24T03:36:20;61.64;44.03;79.49;;
64545;Laerm;50936;51.660;5.616;2023-04-24T03:38:47;62.54;43.39;84.47;;
64545;Laerm;50936;51.660;5.616;2023-04-24T03:41:26;63.23;44.73;81.02;;
64545;Laerm;50936;51.660;5.616;2023-04-24T03:44:08;66.61;43.94;91.56;;
64545;Laerm;50936;51.660;5.616;2023-04-24T03:46:36;63.03;45.80;86.32;;
64545;Laerm;50936;51.660;5.616;2023-04-24T03:49:03;56.56;44.51;74.61;;
64545;Laerm;50936;51.660;5.616;2023-04-24T03:51:34;54.09;43.77;74.75;;
64545;Laerm;50936;51.660;5.616;2023-04-24T03:54:16;62.68;46.13;85.15;;
64545;Laerm;50936;51.660;5.616;2023-04-24T03:56:45;64.27;44.80;85.02;;
64545;Laerm;50936;51.660;5.616;2023-04-24T03:59:12;62.86;45.77;79.32;;
64545;Laerm;50936;51.660;5.616;2023-04-24T04:01:43;65.53;48.61;81.34;;
64545;Laerm;50936;51.660;5.616;2023-04-24T04:04:15;60.32;45.27;79.88;;
64545;Laerm;50936;51.660;5.616;2023-04-24T04:06:44;61.44;46.71;75.06;;
64545;Laerm;50936;51.660;5.616;2023-04-24T04:09:11;62.19;47.81;77.06;;
64545;Laerm;50936;51.660;5.616;2023-04-24T04:11:38;61.55;47.06;82.32;;
64545;Laerm;50936;51.660;5.616;2023-04-24T04:14:04;57.24;46.33;80.10;;
64545;Laerm;50936;51.660;5.616;2023-04-24T04:16:33;62.79;45.54;80.20;;
64545;Laerm;50936;51.660;5.616;2023-04-24T04:19:02;64.66;44.80;84.63;;
64545;Laerm;50936;51.660;5.616;2023-04-24T04:21:30;63.51;44.94;83.64;;
64545;Laerm;50936;51.660;5.616;2023-04-24T04:24:23;65.96;48.96;83.06;;
64545;Laerm;50936;51.660;5.616;2023-04-24T04:26:51;71.70;49.25;92.85;;
64545;Laerm;50936;51.660;5.616;2023-04-24T04:29:26;67.15;45.86;89.51;;
64545;Laerm;50936;51.660;5.616;2023-04-24T04:31:53;66.52;49.16;82.78;;
64545;Laerm;50936;51.660;5.616;2023-04-24T04:34:20;68.13;49.27;89.56;;
64545;Laerm;50936;51.660;5.616;2023-04-24T04:36:48;73.41;51.16;94.84;;
64545;Laerm;50936;51.660;5.616;2023-04-24T04:39:47;67.40;51.85;84.74;;
64545;Laerm;50936;51.660;5.616;2023-04-24T04:42:20;64.80;49.24;76.38;;
64545;Laerm;50936;51.660;5.616;2023-04-24T04:44:48;63.15;49.21;76.34;;
64545;Laerm;50936;51.660;5.616;2023-04-24T04:47:21;63.35;52.57;77.70;;
64545;Laerm;50936;51.660;5.616;2023-04-24T04:49:54;67.15;53.67;83.32;;
64545;Laerm;50936;51.660;5.616;2023-04-24T04:52:25;70.08;51.40;85.04;;
64545;Laerm;50936;51.660;5.616;2023-04-24T04:55:19;67.21;50.49;78.92;;
64545;Laerm;50936;51.660;5.616;2023-04-24T04:58:06;69.01;52.26;86.09;;
64545;Laerm;50936;51.660;5.616;2023-04-24T05:00:33;65.06;54.48;77.83;;
64545;Laerm;50936;51.660;5.616;2023-04-24T05:03:09;68.03;53.40;81.99;;
64545;Laerm;50936;51.660;5.616;2023-04-24T05:05:50;67.53;51.51;80.07;;
64545;Laerm;50936;51.660;5.616;2023-04-24T05:08:17;73.14;54.25;93.54;;
64545;Laerm;50936;51.660;5.616;2023-04-24T05:10:54;69.00;54.56;86.63;;
64545;Laerm;50936;51.660;5.616;2023-04-24T05:13:23;69.15;51.70;88.47;;
64545;Laerm;50936;51.660;5.616;2023-04-24T05:16:10;68.68;51.97;95.24;;
64545;Laerm;50936;51.660;5.616;2023-04-24T05:18:37;65.45;50.93;78.84;;
64545;Laerm;50936;51.660;5.616;2023-04-24T05:21:06;70.76;58.52;84.25;;
64545;Laerm;50936;51.660;5.616;2023-04-24T05:23:34;69.38;57.34;80.82;;
64545;Laerm;50936;51.660;5.616;2023-04-24T05:26:01;70.61;57.68;80.92;;
64545;Laerm;50936;51.660;5.616;2023-04-24T05:28:31;69.74;58.21;79.63;;
64545;Laerm;50936;51.660;5.616;2023-04-24T05:31:06;72.22;59.81;82.64;;
64545;Laerm;50936;51.660;5.616;2023-04-24T05:33:33;69.38;58.79;79.41;;
64545;Laerm;50936;51.660;5.616;2023-04-24T05:36:01;72.10;58.78;86.03;;
64545;Laerm;50936;51.660;5.616;2023-04-24T05:38:28;72.26;58.87;81.87;;
64545;Laerm;50936;51.660;5.616;2023-04-24T05:40:55;70.78;59.44;81.31;;
64545;Laerm;50936;51.660;5.616;2023-04-24T05:43:22;72.52;59.75;83.99;;
64545;Laerm;50936;51.660;5.616;2023-04-24T05:45:49;70.63;59.76;82.49;;
64545;Laerm;50936;51.660;5.616;2023-04-24T05:48:17;72.09;58.06;82.40;;
64545;Laerm;50936;51.660;5.616;2023-04-24T05:50:44;71.55;57.64;80.85;;
64545;Laerm;50936;51.660;5.616;2023-04-24T05:53:11;72.36;61.54;81.47;;
64545;Laerm;50936;51.660;5.616;2023-04-24T05:55:38;71.43;56.81;82.25;;
64545;Laerm;50936;51.660;5.616;2023-04-24T05:58:05;71.43;59.50;81.77;;
64545;Laerm;50936;51.660;5.616;2023-04-24T06:00:35;72.56;59.24;82.57;;
64545;Laerm;50936;51.660;5.616;2023-04-24T06:03:06;71.40;59.37;84.23;;
64545;Laerm;50936;51.660;5.616;2023-04-24T06:05:34;72.19;59.24;92.19;;
64545;Laerm;50936;51.660;5.616;2023-04-24T06:08:02;70.15;57.80;80.05;;
64545;Laerm;50936;51.660;5.616;2023-04-24T06:10:33;71.66;57.47;79.54;;
64545;Laerm;50936;51.660;5.616;2023-04-24T06:13:00;70.16;53.21;82.91;;
64545;Laerm;50936;51.660;5.616;2023-04-24T06:15:30;69.58;58.02;81.63;;
64545;Laerm;50936;51.660;5.616;2023-04-24T06:18:09;70.11;54.03;82.65;;
64545;Laerm;50936;51.660;5.616;2023-04-24T06:20:41;70.85;58.33;80.69;;
64545;Laerm;50936;51.660;5.616;2023-04-24T06:23:09;69.60;59.06;78.25;;
64545;Laerm;50936;51.660;5.616;2023-04-24T06:25:36;68.96;57.23;81.45;;
64545;Laerm;50936;51.660;5.616;2023-04-24T06:28:03;71.25;58.31;82.66;;
64545;Laerm;50936;51.660;5.616;2023-04-24T06:30:31;66.85;55.69;77.43;;
64545;Laerm;50936;51.660;5.616;2023-04-24T06:32:57;69.21;60.84;79.17;;
64545;Laerm;50936;51.660;5.616;2023-04-24T06:35:38;70.11;57.34;79.87;;
64545;Laerm;50936;51.660;5.616;2023-04-24T06:38:06;70.54;60.56;79.52;;
64545;Laerm;50936;51.660;5.616;2023-04-24T06:40:32;71.90;58.48;82.14;;
64545;Laerm;50936;51.660;5.616;2023-04-24T06:43:00;71.16;59.80;82.18;;
64545;Laerm;50936;51.660;5.616;2023-04-24T06:45:29;70.11;56.58;78.07;;
64545;Laerm;50936;51.660;5.616;2023-04-24T06:47:56;70.77;58.86;81.20;;
64545;Laerm;50936;51.660;5.616;2023-04-24T06:50:24;72.57;63.71;80.99;;
64545;Laerm;50936;51.660;5.616;2023-04-24T06:52:51;72.51;62.99;79.97;;
64545;Laerm;50936;51.660;5.616;2023-04-24T06:55:18;72.14;63.99;79.57;;
64545;Laerm;50936;51.660;5.616;2023-04-24T06:57:45;73.56;65.01;82.04;;
64545;Laerm;50936;51.660;5.616;2023-04-24T07:00:13;72.54;60.24;83.11;;
64545;Laerm;50936;51.660;5.616;2023-04-24T07:02:40;69.27;56.54;79.56;;
64545;Laerm;50936;51.660;5.616;2023-04-24T07:05:07;70.26;58.60;78.97;;
64545;Laerm;50936;51.660;5.616;2023-04-24T07:07:35;70.88;60.07;80.83;;
64545;Laerm;50936;51.660;5.616;2023-04-24T07:10:05;71.68;64.09;79.06;;
64545;Laerm;50936;51.660;5.616;2023-04-24T07:12:32;72.46;61.29;82.43;;
64545;Laerm;50936;51.660;5.616;2023-04-24T07:15:00;71.76;59.73;80.06;;
64545;Laerm;50936;51.660;5.616;2023-04-24T07:17:27;72.41;60.13;85.04;;
64545;Laerm;50936;51.660;5.616;2023-04-24T07:19:54;71.43;60.09;82.94;;
64545;Laerm;50936;51.660;5.616;2023-04-24T07:22:21;72.64;59.74;84.24;;
64545;Laerm;50936;51.660;5.616;2023-04-24T07:24:48;70.89;58.90;90.01;;
64545;Laerm;50936;51.660;5.616;2023-04-24T07:27:15;71.97;59.92;87.58;;
64545;Laerm;50936;51.660;5.616;2023-04-24T07:29:42;71.79;56.85;94.18;;
64545;Laerm;50936;51.660;5.616;2023-04-24T07:32:10;70.91;57.51;85.77;;
64545;Laerm;50936;51.660;5.616;2023-04-24T07:34:37;71.69;59.34;83.54;;
64545;Laerm;50936;51.660;5.616;2023-04-24T07:37:04;71.76;59.73;81.43;;
64545;Laerm;50936;51.660;5.616;2023-04-24T07:39:31;74.86;64.27;94.99;;
64545;Laerm;50936;51.660;5.616;2023-04-24T07:41:58;74.12;62.56;96.82;;
64545;Laerm;50936;51.660;5.616;2023-04-24T07:44:26;72.95;62.74;84.24;;
64545;Laerm;50936;51.660;5.616;2023-04-24T07:46:53;73.13;62.03;82.59;;
64545;Laerm;50936;51.660;5.616;2023-04-24T07:49:20;73.58;61.80;84.24;;
64545;Laerm;50936;51.660;5.616;2023-04-24T07:51:49;71.99;60.52;83.08;;
64545;Laerm;50936;51.660;5.616;2023-04-24T07:54:16;75.39;63.97;95.61;;
64545;Laerm;50936;51.660;5.616;2023-04-24T07:56:43;73.24;61.45;83.07;;
64545;Laerm;50936;51.660;5.616;2023-04-24T07:59:10;74.21;61.83;83.64;;
64545;Laerm;50936;51.660;5.616;2023-04-24T08:01:37;72.09;60.38;82.26;;
64545;Laerm;50936;51.660;5.616;2023-04-24T08:04:05;73.79;65.20;82.43;;
64545;Laerm;50936;51.660;5.616;2023-04-24T08:06:32;73.37;60.23;88.01;;
64545;Laerm;50936;51.660;5.616;2023-04-24T08:09:00;73.08;65.25;84.98;;
64545;Laerm;50936;51.660;5.616;2023-04-24T08:11:27;72.00;61.79;84.27;;
64545;Laerm;50936;51.660;5.616;2023-04-24T08:13:54;74.45;66.76;81.52;;
64545;Laerm;50936;51.660;5.616;2023-04-24T08:16:22;72.24;60.36;84.09;;
64545;Laerm;50936;51.660;5.616;2023-04-24T08:18:52;71.87;61.01;87.50;;
64545;Laerm;50936;51.660;5.616;2023-04-24T08:21:19;71.71;59.20;81.87;;
64545;Laerm;50936;51.660;5.616;2023-04-24T08:23:47;73.70;62.79;85.75;;
64545;Laerm;50936;51.660;5.616;2023-04-24T08:26:14;70.90;61.27;81.61;;
64545;Laerm;50936;51.660;5.616;2023-04-24T08:28:42;71.39;62.21;81.50;;
64545;Laerm;50936;51.660;5.616;2023-04-24T08:31:09;71.74;56.89;82.54;;
64545;Laerm;50936;51.660;5.616;2023-04-24T08:33:36;73.54;60.77;84.85;;
64545;Laerm;50936;51.660;5.616;2023-04-24T08:36:04;72.95;62.32;89.26;;
64545;Laerm;50936;51.660;5.616;2023-04-24T08:38:32;73.98;58.81;91.82;;
64545;Laerm;50936;51.660;5.616;2023-04-24T08:41:01;74.69;64.22;87.82;;
64545;Laerm;50936;51.660;5.616;2023-04-24T08:43:28;71.47;58.04;82.88;;
64545;Laerm;50936;51.660;5.616;2023-04-24T08:45:56;71.96;62.75;80.14;;
64545;Laerm;50936;51.660;5.616;2023-04-24T08:48:24;71.35;60.07;79.12;;
64545;Laerm;50936;51.660;5.616;2023-04-24T08:50:59;71.33;57.63;83.33;;
64545;Laerm;50936;51.660;5.616;2023-04-24T08:53:26;70.67;61.31;86.50;;
64545;Laerm;50936;51.660;5.616;2023-04-24T08:55:55;70.17;60.79;79.94;;
64545;Laerm;50936;51.660;5.616;2023-04-24T08:58:25;70.12;57.97;79.65;;
64545;Laerm;50936;51.660;5.616;2023-04-24T09:00:57;69.59;57.47;80.72;;
64545;Laerm;50936;51.660;5.616;2023-04-24T09:03:27;71.03;62.50;80.00;;
64545;Laerm;50936;51.660;5.616;2023-04-24T09:05:57;69.26;58.84;81.55;;
64545;Laerm;50936;51.660;5.616;2023-04-24T09:08:26;68.60;58.04;84.63;;
64545;Laerm;50936;51.660;5.616;2023-04-24T09:10:54;69.89;61.57;84.23;;
64545;Laerm;50936;51.660;5.616;2023-04-24T09:13:21;68.25;57.28;79.86;;
64545;Laerm;50936;51.660;5.616;2023-04-24T09:15:49;68.47;57.39;86.33;;
64545;Laerm;50936;51.660;5.616;2023-04-24T09:18:17;69.21;55.58;85.03;;
64545;Laerm;50936;51.660;5.616;2023-04-24T09:21:03;69.07;59.39;82.25;;
64545;Laerm;50936;51.660;5.616;2023-04-24T09:23:32;67.34;56.92;74.95;;
64545;Laerm;50936;51.660;5.616;2023-04-24T09:26:02;69.36;59.61;81.10;;
64545;Laerm;50936;51.660;5.616;2023-04-24T09:28:36;69.39;61.05;84.51;;
64545;Laerm;50936;51.660;5.616;2023-04-24T09:31:12;68.61;57.10;84.46;;
64545;Laerm;50936;51.660;5.616;2023-04-24T09:33:53;68.87;57.89;90.34;;
64545;Laerm;50936;51.660;5.616;2023-04-24T09:36:31;68.01;56.50;85.19;;
64545;Laerm;50936;51.660;5.616;2023-04-24T09:39:01;68.63;54.83;79.41;;
64545;Laerm;50936;51.660;5.616;2023-04-24T09:41:28;67.34;56.70;78.62;;
64545;Laerm;50936;51.660;5.616;2023-04-24T09:43:56;67.59;57.20;77.24;;
64545;Laerm;50936;51.660;5.616;2023-04-24T09:46:30;67.37;56.05;82.24;;
64545;Laerm;50936;51.660;5.616;2023-04-24T09:49:10;67.50;56.45;83.77;;
64545;Laerm;50936;51.660;5.616;2023-04-24T09:51:38;67.22;57.21;88.78;;
64545;Laerm;50936;51.660;5.616;2023-04-24T09:54:17;69.60;59.76;87.98;;
64545;Laerm;50936;51.660;5.616;2023-04-24T09:56:47;66.93;58.82;84.59;;
64545;Laerm;50936;51.660;5.616;2023-04-24T09:59:15;66.50;53.40;79.33;;
64545;Laerm;50936;51.660;5.616;2023-04-24T10:01:43;68.00;58.89;81.93;;
64545;Laerm;50936;51.660;5.616;2023-04-24T10:04:26;67.29;56.08;81.75;;
64545;Laerm;50936;51.660;5.616;2023-04-24T10:06:56;65.42;53.85;83.09;;
64545;Laerm;50936;51.660;5.616;2023-04-24T10:09:26;68.88;58.47;90.00;;
64545;Laerm;50936;51.660;5.616;2023-04-24T10:11:54;68.45;55.15;85.77;;
64545;Laerm;50936;51.660;5.616;2023-04-24T10:14:25;65.40;53.37;84.92;;
64545;Laerm;50936;51.660;5.616;2023-04-24T10:16:55;66.05;51.06;88.65;;
64545;Laerm;50936;51.660;5.616;2023-04-24T10:19:26;65.30;51.56;90.80;;
64545;Laerm;50936;51.660;5.616;2023-04-24T10:21:54;67.58;54.04;93.41;;
64545;Laerm;50936;51.660;5.616;2023-04-24T10:24:22;69.14;52.00;92.61;;
64545;Laerm;50936;51.660;5.616;2023-04-24T10:26:49;66.27;53.74;79.13;;
64545;Laerm;50936;51.660;5.616;2023-04-24T10:29:18;65.73;53.59;86.24;;
64545;Laerm;50936;51.660;5.616;2023-04-24T10:31:45;65.17;53.22;88.22;;
64545;Laerm;50936;51.660;5.616;2023-04-24T10:34:17;65.63;57.38;75.24;;
64545;Laerm;50936;51.660;5.616;2023-04-24T10:36:52;66.03;52.52;84.56;;
64545;Laerm;50936;51.660;5.616;2023-04-24T10:39:23;66.80;54.34;86.84;;
64545;Laerm;50936;51.660;5.616;2023-04-24T10:41:54;67.42;52.79;85.59;;
64545;Laerm;50936;51.660;5.616;2023-04-24T10:44:24;63.52;55.65;81.13;;
64545;Laerm;50936;51.660;5.616;2023-04-24T10:46:55;65.84;53.68;85.37;;
64545;Laerm;50936;51.660;5.616;2023-04-24T10:49:31;64.74;54.45;79.72;;
64545;Laerm;50936;51.660;5.616;2023-04-24T10:52:03;65.95;55.62;87.65;;
64545;Laerm;50936;51.660;5.616;2023-04-24T11:00:13;64.41;54.03;79.25;;
64545;Laerm;50936;51.660;5.616;2023-04-24T11:02:41;65.32;56.99;86.19;;
64545;Laerm;50936;51.660;5.616;2023-04-24T11:05:17;63.74;55.25;74.38;;
64545;Laerm;50936;51.660;5.616;2023-04-24T11:08:13;64.57;54.82;86.25;;
64545;Laerm;50936;51.660;5.616;2023-04-24T11:10:58;65.79;53.67;85.69;;
64545;Laerm;50936;51.660;5.616;2023-04-24T11:19:07;63.72;52.64;77.32;;
64545;Laerm;50936;51.660;5.616;2023-04-24T11:22:03;64.72;52.54;87.66;;
64545;Laerm;50936;51.660;5.616;2023-04-24T11:24:48;66.38;54.19;87.50;;
64545;Laerm;50936;51.660;5.616;2023-04-24T11:27:22;65.04;50.41;81.93;;
64545;Laerm;50936;51.660;5.616;2023-04-24T11:30:03;65.16;58.29;80.00;;
64545;Laerm;50936;51.660;5.616;2023-04-24T11:32:40;67.94;59.99;83.36;;
64545;Laerm;50936;51.660;5.616;2023-04-24T11:35:18;64.70;52.33;86.50;;
64545;Laerm;50936;51.660;5.616;2023-04-24T11:37:48;64.01;54.75;75.51;;
64545;Laerm;50936;51.660;5.616;2023-04-24T11:40:21;64.77;56.31;75.38;;
64545;Laerm;50936;51.660;5.616;2023-04-24T11:42:53;67.75;55.35;86.20;;
64545;Laerm;50936;51.660;5.616;2023-04-24T11:45:26;65.17;53.72;84.67;;
64545;Laerm;50936;51.660;5.616;2023-04-24T11:47:54;65.60;54.69;81.85;;
64545;Laerm;50936;51.660;5.616;2023-04-24T11:50:26;67.90;56.23;87.20;;
64545;Laerm;50936;51.660;5.616;2023-04-24T11:52:55;65.03;54.03;79.13;;
64545;Laerm;50936;51.660;5.616;2023-04-24T11:55:26;64.87;53.48;84.94;;
64545;Laerm;50936;51.660;5.616;2023-04-24T11:57:59;64.58;56.52;77.35;;
64545;Laerm;50936;51.660;5.616;2023-04-24T12:00:32;64.74;54.02;89.97;;
64545;Laerm;50936;51.660;5.616;2023-04-24T12:03:10;64.09;56.76;85.07;;
64545;Laerm;50936;51.660;5.616;2023-04-24T12:05:39;62.06;52.19;74.57;;
64545;Laerm;50936;51.660;5.616;2023-04-24T12:08:07;64.19;52.61;84.63;;
64545;Laerm;50936;51.660;5.616;2023-04-24T12:10:34;69.29;54.40;91.14;;
64545;Laerm;50936;51.660;5.616;2023-04-24T12:13:02;64.83;54.36;82.26;;
64545;Laerm;50936;51.660;5.616;2023-04-24T12:15:29;66.25;54.97;84.58;;
64545;Laerm;50936;51.660;5.616;2023-04-24T12:17:56;65.39;57.39;81.46;;
64545;Laerm;50936;51.660;5.616;2023-04-24T12:20:30;64.02;54.04;75.80;;
64545;Laerm;50936;51.660;5.616;2023-04-24T12:23:01;66.63;54.29;88.17;;
64545;Laerm;50936;51.660;5.616;2023-04-24T12:25:31;64.16;53.74;84.49;;
64545;Laerm;50936;51.660;5.616;2023-04-24T12:30:34;64.40;56.45;83.15;;
64545;Laerm;50936;51.660;5.616;2023-04-24T12:33:02;78.35;59.75;93.47;;
64545;Laerm;50936;51.660;5.616;2023-04-24T12:35:32;80.24;55.51;96.92;;
64545;Laerm;50936;51.660;5.616;2023-04-24T12:38:12;64.59;55.63;80.40;;
64545;Laerm;50936;51.660;5.616;2023-04-24T12:40:41;65.24;56.62;81.44;;
64545;Laerm;50936;51.660;5.616;2023-04-24T12:43:15;63.93;55.52;76.94;;
64545;Laerm;50936;51.660;5.616;2023-04-24T12:45:43;65.71;57.61;81.31;;
64545;Laerm;50936;51.660;5.616;2023-04-24T12:48:12;64.61;56.70;81.72;;
64545;Laerm;50936;51.660;5.616;2023-04-24T12:50:41;67.46;59.24;91.92;;
64545;Laerm;50936;51.660;5.616;2023-04-24T12:53:11;65.71;51.18;83.44;;
64545;Laerm;50936;51.660;5.616;2023-04-24T12:55:39;65.87;53.64;83.23;;
64545;Laerm;50936;51.660;5.616;2023-04-24T12:58:07;64.46;57.19;76.28;;
64545;Laerm;50936;51.660;5.616;2023-04-24T13:00:34;65.34;55.22;81.32;;
64545;Laerm;50936;51.660;5.616;2023-04-24T13:03:02;65.51;53.44;83.62;;
64545;Laerm;50936;51.660;5.616;2023-04-24T13:05:30;64.75;53.73;80.26;;
64545;Laerm;50936;51.660;5.616;2023-04-24T13:07:57;63.62;51.47;77.52;;
64545;Laerm;50936;51.660;5.616;2023-04-24T13:10:24;66.66;52.38;84.46;;
64545;Laerm;50936;51.660;5.616;2023-04-24T13:12:51;65.26;56.59;78.26;;
64545;Laerm;50936;51.660;5.616;2023-04-24T13:15:19;64.89;56.85;76.74;;
64545;Laerm;50936;51.660;5.616;2023-04-24T13:17:46;65.18;57.03;81.13;;
64545;Laerm;50936;51.660;5.616;2023-04-24T13:20:12;64.62;56.93;80.71;;
64545;Laerm;50936;51.660;5.616;2023-04-24T13:22:39;63.78;54.33;73.09;;
64545;Laerm;50936;51.660;5.616;2023-04-24T13:25:07;64.02;52.21;83.97;;
64545;Laerm;50936;51.660;5.616;2023-04-24T13:27:33;64.30;56.01;82.89;;
64545;Laerm;50936;51.660;5.616;2023-04-24T13:30:00;66.12;52.97;87.63;;
64545;Laerm;50936;51.660;5.616;2023-04-24T13:32:27;67.79;58.48;91.55;;
64545;Laerm;50936;51.660;5.616;2023-04-24T13:34:56;66.23;54.25;89.60;;
64545;Laerm;50936;51.660;5.616;2023-04-24T13:37:23;67.06;52.77;94.07;;
64545;Laerm;50936;51.660;5.616;2023-04-24T13:39:50;66.26;56.17;92.40;;
64545;Laerm;50936;51.660;5.616;2023-04-24T13:42:18;65.84;51.95;86.45;;
64545;Laerm;50936;51.660;5.616;2023-04-24T13:44:46;67.70;56.65;87.71;;
64545;Laerm;50936;51.660;5.616;2023-04-24T13:47:13;66.54;57.19;87.90;;
64545;Laerm;50936;51.660;5.616;2023-04-24T13:49:40;70.92;57.00;90.83;;
64545;Laerm;50936;51.660;5.616;2023-04-24T13:52:07;66.44;54.68;84.57;;
64545;Laerm;50936;51.660;5.616;2023-04-24T13:54:34;66.61;52.47;85.58;;
64545;Laerm;50936;51.660;5.616;2023-04-24T13:57:01;71.95;58.48;92.97;;
64545;Laerm;50936;51.660;5.616;2023-04-24T13:59:29;66.37;55.78;87.36;;
64545;Laerm;50936;51.660;5.616;2023-04-24T14:01:56;66.29;56.64;81.81;;
64545;Laerm;50936;51.660;5.616;2023-04-24T14:04:23;66.20;53.57;81.43;;
64545;Laerm;50936;51.660;5.616;2023-04-24T14:06:51;64.87;55.01;86.05;;
64545;Laerm;50936;51.660;5.616;2023-04-24T14:09:18;64.58;54.73;82.64;;
64545;Laerm;50936;51.660;5.616;2023-04-24T14:11:45;66.21;55.02;81.05;;